Camana, Peru
Current Conditions -  °F | °C
As of 2:00 PM on Friday 21 Nov 2014 (Local Time) from SPQU Reporting Station
Clear Clear  
Wind Chill: 20°   Ceiling: Unl
Heat Index: 20°   Visibility: 6mi
Dew Point: -7°   Wind: 13mph
Humidity: 16%   Direction: 250°WSW
Pressure: 30.27"   Gusts: NA
Location:  16.62°S, 72.72°W
Report Text: SPQU 211900Z 25011KT CAVOK 20/M07 Q1025 NOSIGRMK PP000
Loading
Personal Weather Stations






























Interactive Weather Map New forecast layout! Learn more

10-Day Weather Forecast

Advertisements
Track Severe Weather on mobile